Horicon, Wisconsin
Current Conditions -  °F | °C
As of 6:15 PM on Wednesday 28 Jan 2015 (Local Time) from KUNU Reporting Station
Clear Clear  
Wind Chill: 18°   Ceiling: Unl
Heat Index: 30°   Visibility: 10mi
Dew Point: 21°   Wind: 16mph
Humidity: 69%   Direction: 120°ESE
Pressure: 29.9"   Gusts: 21mph
Location:  43.45°N, 88.63°W
Report Text: KUNU 290015Z AUTO 12014G18KT 10SM CLR M01/M06 A2990 RMK AO2 T10131063
Loading
Personal Weather Stations






























Interactive Weather Map New forecast layout! Learn more

10-Day Weather Forecast

Advertisements
Track Severe Weather on mobile